createdAt,value
2018-08-18T00:00:19.119Z,15.19
2018-08-18T00:01:19.073Z,15.22
2018-08-18T00:02:19.029Z,15.22
2018-08-18T00:03:18.986Z,15.17
2018-08-18T00:04:18.944Z,15.23
2018-08-18T00:05:18.904Z,15.12
2018-08-18T00:06:18.858Z,15.08
2018-08-18T00:07:18.838Z,15.12
2018-08-18T00:08:18.780Z,15.08
2018-08-18T00:09:18.731Z,15.14
2018-08-18T00:10:18.696Z,15.14
2018-08-18T00:11:18.648Z,15.10
2018-08-18T00:12:18.602Z,15.12
2018-08-18T00:13:18.555Z,15.08
2018-08-18T00:14:18.512Z,15.00
2018-08-18T00:15:18.468Z,15.02
2018-08-18T00:16:18.428Z,15.02
2018-08-18T00:17:18.382Z,15.00
2018-08-18T00:18:18.340Z,14.99
2018-08-18T00:19:18.297Z,15.04
2018-08-18T00:20:18.255Z,14.97
2018-08-18T00:21:18.214Z,14.94
2018-08-18T00:22:18.167Z,14.96
2018-08-18T00:23:18.134Z,14.94
2018-08-18T00:24:18.085Z,14.96
2018-08-18T00:25:18.041Z,14.92
2018-08-18T00:26:17.996Z,14.89
2018-08-18T00:27:17.958Z,14.85
2018-08-18T00:28:17.911Z,14.86
2018-08-18T00:29:17.865Z,14.85
2018-08-18T00:30:17.824Z,14.81
2018-08-18T00:31:17.783Z,14.85
2018-08-18T00:32:17.742Z,14.86
2018-08-18T00:33:17.698Z,14.89
2018-08-18T00:34:17.694Z,14.78
2018-08-18T00:35:17.616Z,14.85
2018-08-18T00:36:17.564Z,14.85
2018-08-18T00:37:17.520Z,14.87
2018-08-18T00:38:17.478Z,14.77
2018-08-18T00:39:17.435Z,14.74
2018-08-18T00:40:17.392Z,14.79
2018-08-18T00:41:17.349Z,14.86
2018-08-18T00:42:17.306Z,14.81
2018-08-18T00:43:17.263Z,14.74
2018-08-18T00:44:17.222Z,14.82
2018-08-18T00:45:17.176Z,14.81
2018-08-18T00:46:17.135Z,14.78
2018-08-18T00:47:17.088Z,14.74
2018-08-18T00:48:17.046Z,14.74
2018-08-18T00:49:17.004Z,14.79
2018-08-18T00:50:16.961Z,14.74
2018-08-18T00:51:16.919Z,14.74
2018-08-18T00:52:16.876Z,14.77
2018-08-18T00:53:16.830Z,14.77
2018-08-18T00:54:16.786Z,14.78
2018-08-18T00:55:16.745Z,14.73
2018-08-18T00:56:16.708Z,14.68
2018-08-18T00:57:16.659Z,14.68
2018-08-18T00:58:16.614Z,14.63
2018-08-18T00:59:16.572Z,14.63
2018-08-18T01:00:16.530Z,14.68
2018-08-18T01:01:16.483Z,14.63
2018-08-18T01:02:16.444Z,14.67
2018-08-18T01:03:16.402Z,14.66
2018-08-18T01:04:16.361Z,14.67
2018-08-18T01:05:16.313Z,14.67
2018-08-18T01:06:16.267Z,14.66
2018-08-18T01:07:16.225Z,14.67
2018-08-18T01:08:16.181Z,14.67
2018-08-18T01:09:16.141Z,14.62
2018-08-18T01:10:16.094Z,14.67
2018-08-18T01:11:16.142Z,14.62
2018-08-18T01:12:16.050Z,14.74
2018-08-18T01:13:16.006Z,14.70
2018-08-18T01:14:16.074Z,14.63
2018-08-18T01:15:15.881Z,14.79
2018-08-18T01:16:15.838Z,14.73
2018-08-18T01:17:15.792Z,14.77
2018-08-18T01:18:15.750Z,14.67
2018-08-18T01:19:15.705Z,14.70
2018-08-18T01:20:15.668Z,14.71
2018-08-18T01:21:15.636Z,14.78
2018-08-18T01:22:15.576Z,14.74
2018-08-18T01:23:15.535Z,14.74
2018-08-18T01:24:15.498Z,14.77
2018-08-18T01:25:15.447Z,14.73
2018-08-18T01:26:15.402Z,14.71
2018-08-18T01:27:15.362Z,14.66
2018-08-18T01:28:15.318Z,14.73
2018-08-18T01:29:15.276Z,14.67
2018-08-18T01:30:15.230Z,14.63
2018-08-18T01:31:15.188Z,14.63
2018-08-18T01:32:15.146Z,14.74
2018-08-18T01:33:15.101Z,14.68
2018-08-18T01:34:15.059Z,14.66
2018-08-18T01:35:15.015Z,14.62
2018-08-18T01:36:14.971Z,14.63
2018-08-18T01:37:14.938Z,14.66
2018-08-18T01:38:14.887Z,14.63
2018-08-18T01:39:14.843Z,14.63
2018-08-18T01:40:14.800Z,14.61
2018-08-18T01:41:14.761Z,14.68
2018-08-18T01:42:14.713Z,14.62
2018-08-18T01:43:14.671Z,14.61
2018-08-18T01:44:14.639Z,14.49
2018-08-18T01:45:14.587Z,14.63
2018-08-18T01:46:14.540Z,14.58
2018-08-18T01:47:14.498Z,14.52
2018-08-18T01:48:14.454Z,14.61
2018-08-18T01:49:14.411Z,14.49
2018-08-18T01:50:14.366Z,14.53
2018-08-18T01:51:14.322Z,14.41
2018-08-18T01:52:14.281Z,14.52
2018-08-18T01:53:14.234Z,14.43
2018-08-18T01:54:14.195Z,14.51
2018-08-18T01:55:14.147Z,14.48
2018-08-18T01:56:14.105Z,14.51
2018-08-18T01:57:14.064Z,14.52
2018-08-18T01:58:14.021Z,14.48
2018-08-18T01:59:13.975Z,14.45
2018-08-18T02:00:13.935Z,14.44
2018-08-18T02:01:13.897Z,14.51
2018-08-18T02:02:13.846Z,14.43
2018-08-18T02:03:13.802Z,14.48
2018-08-18T02:04:13.759Z,14.53
2018-08-18T02:05:13.720Z,14.48
2018-08-18T02:06:13.673Z,14.44
2018-08-18T02:07:13.632Z,14.51
2018-08-18T02:08:13.711Z,14.38
2018-08-18T02:09:13.542Z,14.44
2018-08-18T02:10:13.498Z,14.44
2018-08-18T02:11:13.455Z,14.38
2018-08-18T02:12:13.412Z,14.49
2018-08-18T02:13:13.367Z,14.40
2018-08-18T02:14:13.325Z,14.40
2018-08-18T02:15:13.282Z,14.38
2018-08-18T02:16:13.241Z,14.38
2018-08-18T02:17:13.197Z,14.36
2018-08-18T02:18:13.160Z,14.36
2018-08-18T02:19:13.110Z,14.36
2018-08-18T02:20:13.066Z,14.40
2018-08-18T02:21:13.022Z,14.28
2018-08-18T02:22:12.980Z,14.26
2018-08-18T02:23:12.941Z,14.31
2018-08-18T02:24:12.893Z,14.31
2018-08-18T02:25:12.849Z,14.23
2018-08-18T02:26:12.805Z,14.34
2018-08-18T02:27:12.763Z,14.25
2018-08-18T02:28:12.719Z,14.23
2018-08-18T02:29:12.674Z,14.26
2018-08-18T02:30:12.635Z,14.23
2018-08-18T02:31:12.588Z,14.22
2018-08-18T02:32:12.554Z,14.19
2018-08-18T02:33:12.502Z,14.16
2018-08-18T02:34:12.458Z,14.13
2018-08-18T02:35:12.426Z,14.11
2018-08-18T02:36:12.373Z,14.04
2018-08-18T02:37:12.327Z,14.05
2018-08-18T02:38:12.285Z,14.04
2018-08-18T02:39:12.245Z,14.08
2018-08-18T02:40:12.315Z,14.03
2018-08-18T02:41:12.154Z,14.08
2018-08-18T02:42:12.121Z,14.04
2018-08-18T02:43:12.068Z,14.07
2018-08-18T02:44:12.023Z,14.01
2018-08-18T02:45:11.984Z,14.05
2018-08-18T02:46:11.938Z,14.01
2018-08-18T02:47:11.908Z,14.07
2018-08-18T02:48:11.851Z,14.01
2018-08-18T02:49:11.811Z,14.03
2018-08-18T02:50:11.763Z,13.91
2018-08-18T02:51:11.718Z,13.87
2018-08-18T02:52:11.676Z,14.01
2018-08-18T02:53:11.641Z,13.93
2018-08-18T02:54:11.596Z,13.94
2018-08-18T02:55:11.558Z,13.95
2018-08-18T02:56:11.505Z,13.94
2018-08-18T02:57:11.458Z,13.97
2018-08-18T02:58:11.414Z,13.93
2018-08-18T02:59:11.371Z,13.83
2018-08-18T03:00:11.328Z,13.86
2018-08-18T03:01:11.288Z,13.86
2018-08-18T03:02:11.246Z,13.87
2018-08-18T03:03:11.197Z,13.82
2018-08-18T03:04:11.154Z,13.79
2018-08-18T03:05:11.112Z,13.80
2018-08-18T03:06:11.066Z,13.79
2018-08-18T03:07:11.026Z,13.80
2018-08-18T03:08:10.986Z,13.78
2018-08-18T03:09:10.939Z,13.76
2018-08-18T03:10:10.892Z,13.78
2018-08-18T03:11:10.854Z,13.83
2018-08-18T03:12:10.804Z,13.79
2018-08-18T03:13:10.763Z,13.68
2018-08-18T03:14:10.716Z,13.71
2018-08-18T03:15:10.674Z,13.68
2018-08-18T03:16:10.633Z,13.68
2018-08-18T03:17:10.588Z,13.73
2018-08-18T03:18:10.542Z,13.75
2018-08-18T03:19:10.502Z,13.71
2018-08-18T03:20:10.457Z,13.73
2018-08-18T03:21:10.415Z,13.76
2018-08-18T03:22:10.423Z,13.73
2018-08-18T03:23:10.324Z,13.73
2018-08-18T03:24:10.518Z,13.71
2018-08-18T03:25:10.236Z,13.68
2018-08-18T03:26:10.193Z,13.70
2018-08-18T03:27:10.150Z,13.67
2018-08-18T03:28:10.105Z,13.62
2018-08-18T03:29:10.174Z,13.73
2018-08-18T03:30:10.020Z,13.58
2018-08-18T03:31:09.977Z,13.73
2018-08-18T03:32:09.938Z,13.58
2018-08-18T03:33:09.888Z,13.68
2018-08-18T03:34:09.844Z,13.61
2018-08-18T03:35:09.801Z,13.65
2018-08-18T03:36:09.756Z,13.62
2018-08-18T03:37:09.712Z,13.54
2018-08-18T03:38:09.668Z,13.60
2018-08-18T03:39:09.626Z,13.60
2018-08-18T03:40:09.583Z,13.62
2018-08-18T03:41:09.540Z,13.58
2018-08-18T03:42:09.493Z,13.58
2018-08-18T03:43:09.450Z,13.57
2018-08-18T03:44:09.416Z,13.54
2018-08-18T03:45:09.366Z,13.55
2018-08-18T03:46:09.318Z,13.58
2018-08-18T03:47:09.276Z,13.52
2018-08-18T03:48:09.233Z,13.54
2018-08-18T03:49:09.198Z,13.52
2018-08-18T03:50:09.145Z,13.50
2018-08-18T03:51:09.103Z,13.54
2018-08-18T03:52:09.058Z,13.55
2018-08-18T03:53:09.013Z,13.52
2018-08-18T03:54:08.969Z,13.50
2018-08-18T03:55:08.925Z,13.50
2018-08-18T03:56:08.887Z,13.50
2018-08-18T03:57:08.841Z,13.52
2018-08-18T03:58:08.793Z,13.37
2018-08-18T03:59:08.757Z,13.52
2018-08-18T04:00:08.708Z,13.40
2018-08-18T04:01:08.665Z,13.50
2018-08-18T04:02:08.792Z,13.54
2018-08-18T04:03:08.581Z,13.52
2018-08-18T04:04:08.533Z,13.50
2018-08-18T04:05:08.490Z,13.43
2018-08-18T04:06:08.446Z,13.49
2018-08-18T04:07:08.402Z,13.42
2018-08-18T04:08:08.358Z,13.46
2018-08-18T04:09:08.350Z,13.46
2018-08-18T04:10:08.269Z,13.43
2018-08-18T04:11:08.226Z,13.42
2018-08-18T04:12:08.182Z,13.45
2018-08-18T04:13:08.137Z,13.47
2018-08-18T04:14:08.095Z,13.36
2018-08-18T04:15:08.052Z,13.37
2018-08-18T04:16:08.008Z,13.45
2018-08-18T04:17:07.965Z,13.40
2018-08-18T04:18:07.920Z,13.36
2018-08-18T04:19:07.878Z,13.33
2018-08-18T04:20:07.833Z,13.43
2018-08-18T04:21:07.798Z,13.31
2018-08-18T04:22:07.748Z,13.43
2018-08-18T04:23:07.699Z,13.37
2018-08-18T04:24:07.657Z,13.30
2018-08-18T04:25:07.660Z,13.28
2018-08-18T04:26:07.576Z,13.39
2018-08-18T04:27:07.527Z,13.31
2018-08-18T04:28:07.481Z,13.37
2018-08-18T04:29:07.437Z,13.43
2018-08-18T04:30:07.394Z,13.30
2018-08-18T04:31:07.350Z,13.31
2018-08-18T04:32:07.310Z,13.42
2018-08-18T04:33:07.269Z,13.31
2018-08-18T04:34:07.217Z,13.36
2018-08-18T04:35:07.182Z,13.39
2018-08-18T04:36:07.131Z,13.36
2018-08-18T04:37:07.086Z,13.33
2018-08-18T04:38:07.043Z,13.27
2018-08-18T04:39:06.998Z,13.36
2018-08-18T04:40:06.955Z,13.27
2018-08-18T04:41:06.912Z,13.28
2018-08-18T04:42:06.870Z,13.30
2018-08-18T04:43:06.825Z,13.31
2018-08-18T04:44:06.780Z,13.27
2018-08-18T04:45:06.736Z,13.33
2018-08-18T04:46:06.698Z,13.31
2018-08-18T04:47:06.651Z,13.27
2018-08-18T04:48:06.606Z,13.27
2018-08-18T04:49:06.561Z,13.33
2018-08-18T04:50:06.519Z,13.30
2018-08-18T04:51:06.474Z,13.31
2018-08-18T04:52:06.429Z,13.33
2018-08-18T04:53:06.388Z,13.39
2018-08-18T04:54:06.341Z,13.40
2018-08-18T04:55:06.298Z,13.28
2018-08-18T04:56:06.256Z,13.30
2018-08-18T04:57:06.212Z,13.39
2018-08-18T04:58:06.169Z,13.31
2018-08-18T04:59:06.125Z,13.36
2018-08-18T05:00:06.079Z,13.40
2018-08-18T05:01:06.042Z,13.37
2018-08-18T05:02:05.991Z,13.40
2018-08-18T05:03:05.947Z,13.43
2018-08-18T05:04:05.910Z,13.47
2018-08-18T05:05:05.877Z,13.46
2018-08-18T05:06:05.819Z,13.42
2018-08-18T05:07:05.775Z,13.40
2018-08-18T05:08:05.727Z,13.42
2018-08-18T05:09:05.682Z,13.43
2018-08-18T05:10:05.641Z,13.40
2018-08-18T05:11:05.598Z,13.40
2018-08-18T05:12:05.552Z,13.52
2018-08-18T05:13:05.520Z,13.39
2018-08-18T05:14:05.466Z,13.47
2018-08-18T05:15:05.421Z,13.39
2018-08-18T05:16:05.381Z,13.52
2018-08-18T05:17:05.332Z,13.58
2018-08-18T05:18:05.292Z,13.54
2018-08-18T05:19:05.290Z,13.61
2018-08-18T05:20:05.202Z,13.58
2018-08-18T05:21:05.157Z,13.54
2018-08-18T05:22:05.114Z,13.54
2018-08-18T05:23:05.070Z,13.62
2018-08-18T05:24:05.030Z,13.65
2018-08-18T05:25:04.982Z,13.67
2018-08-18T05:26:04.940Z,13.58
2018-08-18T05:27:04.907Z,13.70
2018-08-18T05:28:04.853Z,13.62
2018-08-18T05:29:04.808Z,13.68
2018-08-18T05:30:04.764Z,13.75
2018-08-18T05:31:04.720Z,13.75
2018-08-18T05:32:04.677Z,13.82
2018-08-18T05:33:04.633Z,13.78
2018-08-18T05:34:04.602Z,13.80
2018-08-18T05:35:04.549Z,13.89
2018-08-18T05:36:04.502Z,13.85
2018-08-18T05:37:04.460Z,13.91
2018-08-18T05:38:04.414Z,13.94
2018-08-18T05:39:04.371Z,13.95
2018-08-18T05:40:04.327Z,13.91
2018-08-18T05:41:04.286Z,13.95
2018-08-18T05:42:04.242Z,14.04
2018-08-18T05:43:04.197Z,14.00
2018-08-18T05:44:04.152Z,14.05
2018-08-18T05:45:04.109Z,14.04
2018-08-18T05:46:04.067Z,14.16
2018-08-18T05:47:04.023Z,14.20
2018-08-18T05:48:03.978Z,14.28
2018-08-18T05:49:03.937Z,14.31
2018-08-18T05:50:03.890Z,14.26
2018-08-18T05:51:03.848Z,14.38
2018-08-18T05:52:03.805Z,14.34
2018-08-18T05:53:03.762Z,14.38
2018-08-18T05:54:03.715Z,14.43
2018-08-18T05:55:03.673Z,14.44
2018-08-18T05:56:03.633Z,14.45
2018-08-18T05:57:03.588Z,14.58
2018-08-18T05:58:03.545Z,14.52
2018-08-18T05:59:03.505Z,14.63
2018-08-18T06:00:03.464Z,14.71
2018-08-18T06:01:03.412Z,14.78
2018-08-18T06:02:03.368Z,14.79
2018-08-18T06:03:03.328Z,14.68
2018-08-18T06:04:03.283Z,14.78
2018-08-18T06:05:03.239Z,14.74
2018-08-18T06:06:03.194Z,14.87
2018-08-18T06:07:03.152Z,14.87
2018-08-18T06:08:03.114Z,15.00
2018-08-18T06:09:03.065Z,14.96
2018-08-18T06:10:03.023Z,15.04
2018-08-18T06:11:02.984Z,15.04
2018-08-18T06:12:02.955Z,15.08
2018-08-18T06:13:02.892Z,15.18
2018-08-18T06:14:02.849Z,15.12
2018-08-18T06:15:02.808Z,15.25
2018-08-18T06:16:02.763Z,15.22
2018-08-18T06:17:02.721Z,15.39
2018-08-18T06:18:02.678Z,15.37
2018-08-18T06:19:02.635Z,15.39
2018-08-18T06:20:02.594Z,15.47
2018-08-18T06:21:02.554Z,15.52
2018-08-18T06:22:02.503Z,15.52
2018-08-18T06:23:02.465Z,15.54
2018-08-18T06:24:02.431Z,15.62
2018-08-18T06:25:02.377Z,15.67
2018-08-18T06:26:02.332Z,15.76
2018-08-18T06:27:02.291Z,15.75
2018-08-18T06:28:02.245Z,15.78
2018-08-18T06:29:02.204Z,15.81
2018-08-18T06:30:02.159Z,15.90
2018-08-18T06:31:02.119Z,15.87
2018-08-18T06:32:02.074Z,16.02
2018-08-18T06:33:02.032Z,16.00
2018-08-18T06:34:01.989Z,16.16
2018-08-18T06:35:01.996Z,16.16
2018-08-18T06:36:01.933Z,16.28
2018-08-18T06:37:01.860Z,16.17
2018-08-18T06:38:01.819Z,16.24
2018-08-18T06:39:01.773Z,16.28
2018-08-18T06:40:01.733Z,16.29
2018-08-18T06:41:01.718Z,16.37
2018-08-18T06:42:01.654Z,16.40
2018-08-18T06:43:01.608Z,16.49
2018-08-18T06:44:01.562Z,16.49
2018-08-18T06:45:01.521Z,16.49
2018-08-18T06:46:01.476Z,16.59
2018-08-18T06:47:01.432Z,16.64
2018-08-18T06:48:01.393Z,16.68
2018-08-18T06:49:01.354Z,16.77
2018-08-18T06:50:01.311Z,16.74
2018-08-18T06:51:01.267Z,16.80
2018-08-18T06:52:01.220Z,16.82
2018-08-18T06:53:01.178Z,16.87
2018-08-18T06:54:01.136Z,16.91
2018-08-18T06:55:01.355Z,17.01
2018-08-18T06:56:01.052Z,17.10
2018-08-18T06:57:01.121Z,17.05
2018-08-18T06:58:00.967Z,17.14
2018-08-18T06:59:00.924Z,17.16
2018-08-18T07:00:00.889Z,17.24
2018-08-18T07:01:00.840Z,17.24
2018-08-18T07:02:00.795Z,17.30
2018-08-18T07:03:00.757Z,17.31
2018-08-18T07:04:00.713Z,17.30
2018-08-18T07:05:00.670Z,17.44
2018-08-18T07:06:00.730Z,17.39
2018-08-18T07:07:00.588Z,17.44
2018-08-18T07:08:00.544Z,17.56
2018-08-18T07:09:00.503Z,17.54
2018-08-18T07:10:00.460Z,17.57
2018-08-18T07:11:00.418Z,17.69
2018-08-18T07:12:00.377Z,17.69
2018-08-18T07:13:00.333Z,17.75
2018-08-18T07:14:00.292Z,17.75
2018-08-18T07:15:00.247Z,17.78
2018-08-18T07:16:00.210Z,17.87
2018-08-18T07:17:00.168Z,17.88
2018-08-18T07:18:00.123Z,17.94
2018-08-18T07:19:00.080Z,17.95
2018-08-18T07:20:00.039Z,18.02
2018-08-18T07:21:00.006Z,18.05
2018-08-18T07:21:59.954Z,18.08
2018-08-18T07:22:59.913Z,18.13
2018-08-18T07:24:02.374Z,18.23
2018-08-18T07:24:59.827Z,18.28
2018-08-18T07:25:59.794Z,18.31
2018-08-18T07:26:59.747Z,18.41
2018-08-18T07:27:59.706Z,18.46
2018-08-18T07:28:59.834Z,18.39
2018-08-18T07:29:59.627Z,18.43
2018-08-18T07:30:59.581Z,18.42
2018-08-18T07:31:59.535Z,18.61
2018-08-18T07:32:59.495Z,18.67
2018-08-18T07:33:59.454Z,18.74
2018-08-18T07:34:59.411Z,18.73
2018-08-18T07:35:59.374Z,18.78
2018-08-18T07:36:59.334Z,18.91
2018-08-18T07:37:59.283Z,19.05
2018-08-18T07:38:59.260Z,19.12
2018-08-18T07:39:59.209Z,19.22
2018-08-18T07:40:59.158Z,19.37
2018-08-18T07:41:59.120Z,19.47
2018-08-18T07:42:59.079Z,19.67
2018-08-18T07:43:59.037Z,19.74
2018-08-18T07:44:58.993Z,19.79
2018-08-18T07:45:58.954Z,19.93
2018-08-18T07:46:58.910Z,19.97
2018-08-18T07:47:58.900Z,20.12
2018-08-18T07:48:58.835Z,20.22
2018-08-18T07:49:58.785Z,20.24
2018-08-18T07:50:58.746Z,20.34
2018-08-18T07:51:58.705Z,20.50
2018-08-18T07:52:58.672Z,20.52
2018-08-18T07:53:58.621Z,20.75
2018-08-18T07:54:58.579Z,20.73
2018-08-18T07:55:58.543Z,20.95
2018-08-18T07:56:58.501Z,21.07
2018-08-18T07:57:58.466Z,21.19
2018-08-18T07:58:58.415Z,21.38
2018-08-18T07:59:58.380Z,21.44
2018-08-18T08:00:58.338Z,21.50
2018-08-18T08:01:58.295Z,21.58
2018-08-18T08:02:58.251Z,21.75
2018-08-18T08:03:58.213Z,21.85
2018-08-18T08:04:58.190Z,22.00
2018-08-18T08:05:58.129Z,22.21
2018-08-18T08:06:58.096Z,22.22
2018-08-18T08:07:58.048Z,22.40
2018-08-18T08:08:58.012Z,22.49
2018-08-18T08:09:57.966Z,22.55
2018-08-18T08:10:57.929Z,22.68
2018-08-18T08:11:57.890Z,22.84
2018-08-18T08:12:57.959Z,22.96
2018-08-18T08:13:57.807Z,23.06
2018-08-18T08:14:57.767Z,23.11
2018-08-18T08:15:57.728Z,23.14
2018-08-18T08:16:57.690Z,23.23
2018-08-18T08:17:57.646Z,23.39
2018-08-18T08:18:57.607Z,23.42
2018-08-18T08:19:57.569Z,23.47
2018-08-18T08:20:57.528Z,23.59
2018-08-18T08:21:57.487Z,23.73
2018-08-18T08:22:57.521Z,23.81
2018-08-18T08:23:57.408Z,23.85
2018-08-18T08:25:02.872Z,23.95
2018-08-18T08:25:57.329Z,23.99
2018-08-18T08:26:57.291Z,24.10
2018-08-18T08:27:57.249Z,24.14
2018-08-18T08:28:57.211Z,24.24
2018-08-18T08:29:57.170Z,24.28
2018-08-18T08:30:57.133Z,24.32
2018-08-18T08:31:57.092Z,24.40
2018-08-18T08:32:57.053Z,24.46
2018-08-18T08:33:57.015Z,24.59
2018-08-18T08:34:56.983Z,24.68
2018-08-18T08:35:56.935Z,24.78
2018-08-18T08:36:56.900Z,24.84
2018-08-18T08:37:56.864Z,24.92
2018-08-18T08:38:56.818Z,24.93
2018-08-18T08:39:56.778Z,25.04
2018-08-18T08:40:56.739Z,25.07
2018-08-18T08:41:56.702Z,25.19
2018-08-18T08:42:56.664Z,25.14
2018-08-18T08:43:56.623Z,25.26
2018-08-18T08:44:56.584Z,25.26
2018-08-18T08:45:56.545Z,25.34
2018-08-18T08:46:56.508Z,25.37
2018-08-18T08:47:56.471Z,25.52
2018-08-18T08:48:56.440Z,25.56
2018-08-18T08:49:56.389Z,25.48
2018-08-18T08:50:56.349Z,25.49
2018-08-18T08:51:56.313Z,25.56
2018-08-18T08:52:56.273Z,25.73
2018-08-18T08:53:56.237Z,25.68
2018-08-18T08:54:56.201Z,25.67
2018-08-18T08:55:56.160Z,25.70
2018-08-18T08:56:56.127Z,25.73
2018-08-18T08:57:56.090Z,25.67
2018-08-18T08:58:56.162Z,25.77
2018-08-18T08:59:56.015Z,25.77
2018-08-18T09:00:55.967Z,25.74
2018-08-18T09:01:55.934Z,25.86
2018-08-18T09:02:55.892Z,25.93
2018-08-18T09:03:55.852Z,25.92
2018-08-18T09:04:55.815Z,26.01
2018-08-18T09:05:55.778Z,26.01
2018-08-18T09:06:55.740Z,26.06
2018-08-18T09:07:55.719Z,25.99
2018-08-18T09:08:55.663Z,26.13
2018-08-18T09:09:55.625Z,26.16
2018-08-18T09:10:55.584Z,26.16
2018-08-18T09:11:55.550Z,26.24
2018-08-18T09:12:55.595Z,26.26
2018-08-18T09:13:55.484Z,26.26
2018-08-18T09:14:55.434Z,26.34
2018-08-18T09:15:55.396Z,26.30
2018-08-18T09:16:55.363Z,26.39
2018-08-18T09:17:55.319Z,26.48
2018-08-18T09:18:55.282Z,26.55
2018-08-18T09:19:55.249Z,26.53
2018-08-18T09:20:55.205Z,26.56
2018-08-18T09:21:55.170Z,26.56
2018-08-18T09:22:55.130Z,26.67
2018-08-18T09:23:55.096Z,26.73
2018-08-18T09:24:55.055Z,26.78
2018-08-18T09:25:55.052Z,26.83
2018-08-18T09:26:54.981Z,26.81
2018-08-18T09:27:54.944Z,26.92
2018-08-18T09:28:54.907Z,26.88
2018-08-18T09:29:54.887Z,26.86
2018-08-18T09:30:54.831Z,26.98
2018-08-18T09:31:54.793Z,27.03
2018-08-18T09:32:54.754Z,27.01
2018-08-18T09:33:54.717Z,27.01
2018-08-18T09:34:54.679Z,27.04
2018-08-18T09:35:54.642Z,27.11
2018-08-18T09:36:54.619Z,27.13
2018-08-18T09:37:54.574Z,27.18
2018-08-18T09:38:54.540Z,27.26
2018-08-18T09:39:54.499Z,27.29
2018-08-18T09:40:54.466Z,27.23
2018-08-18T09:41:54.423Z,27.40
2018-08-18T09:42:54.383Z,27.45
2018-08-18T09:43:54.348Z,27.45
2018-08-18T09:44:54.310Z,27.52
2018-08-18T09:45:54.270Z,27.45
2018-08-18T09:46:54.233Z,27.53
2018-08-18T09:47:54.196Z,27.52
2018-08-18T09:48:54.159Z,27.58
2018-08-18T09:49:54.122Z,27.64
2018-08-18T09:50:54.085Z,27.58
2018-08-18T09:51:54.048Z,27.64
2018-08-18T09:52:54.014Z,27.76
2018-08-18T09:53:53.987Z,27.78
2018-08-18T09:54:53.937Z,27.85
2018-08-18T09:55:53.902Z,27.97
2018-08-18T09:56:53.863Z,27.93
2018-08-18T09:57:53.827Z,27.93
2018-08-18T09:58:53.801Z,28.06
2018-08-18T09:59:53.766Z,28.13
2018-08-18T10:00:53.715Z,28.10
2018-08-18T10:01:53.676Z,28.19
2018-08-18T10:02:53.640Z,28.19
2018-08-18T10:03:53.603Z,28.25
2018-08-18T10:04:53.565Z,28.37
2018-08-18T10:05:53.532Z,28.35
2018-08-18T10:06:53.495Z,28.43
2018-08-18T10:07:53.456Z,28.43
2018-08-18T10:08:53.419Z,28.49
2018-08-18T10:09:53.383Z,28.49
2018-08-18T10:10:53.345Z,28.56
2018-08-18T10:11:53.312Z,28.53
2018-08-18T10:12:53.271Z,28.52
2018-08-18T10:13:53.234Z,28.57
2018-08-18T10:14:53.198Z,28.64
2018-08-18T10:15:53.161Z,28.62
2018-08-18T10:16:53.132Z,28.72
2018-08-18T10:17:53.089Z,28.59
2018-08-18T10:18:53.056Z,28.57
2018-08-18T10:19:53.017Z,28.64
2018-08-18T10:20:52.980Z,28.68
2018-08-18T10:21:52.942Z,28.74
2018-08-18T10:22:52.905Z,28.74
2018-08-18T10:23:52.870Z,28.74
2018-08-18T10:24:52.838Z,28.83
2018-08-18T10:25:52.794Z,28.86
2018-08-18T10:26:52.761Z,28.86
2018-08-18T10:27:52.723Z,28.83
2018-08-18T10:28:52.695Z,28.83
2018-08-18T10:29:52.649Z,28.90
2018-08-18T10:30:52.619Z,28.97
2018-08-18T10:31:52.577Z,29.05
2018-08-18T10:32:52.539Z,28.96
2018-08-18T10:33:52.505Z,29.07
2018-08-18T10:34:52.466Z,29.12
2018-08-18T10:35:52.434Z,29.02
2018-08-18T10:36:52.399Z,29.12
2018-08-18T10:37:52.356Z,29.10
2018-08-18T10:38:52.324Z,28.89
2018-08-18T10:39:52.285Z,28.75
2018-08-18T10:40:52.246Z,28.70
2018-08-18T10:41:52.210Z,28.62
2018-08-18T10:42:52.174Z,28.70
2018-08-18T10:43:52.138Z,28.68
2018-08-18T10:44:52.100Z,28.72
2018-08-18T10:45:52.064Z,28.60
2018-08-18T10:46:52.029Z,28.52
2018-08-18T10:47:51.990Z,28.49
2018-08-18T10:48:51.955Z,28.47
2018-08-18T10:49:51.918Z,28.50
2018-08-18T10:50:51.884Z,28.45
2018-08-18T10:51:51.843Z,28.60
2018-08-18T10:52:51.807Z,28.45
2018-08-18T10:53:51.804Z,28.56
2018-08-18T10:54:51.750Z,28.65
2018-08-18T10:55:51.698Z,28.60
2018-08-18T10:56:51.664Z,28.67
2018-08-18T10:57:51.625Z,28.71
2018-08-18T10:58:51.589Z,28.72
2018-08-18T10:59:51.552Z,28.83
2018-08-18T11:00:51.513Z,28.87
2018-08-18T11:01:51.483Z,28.78
2018-08-18T11:02:51.439Z,28.75
2018-08-18T11:03:51.464Z,28.78
2018-08-18T11:04:51.371Z,28.86
2018-08-18T11:06:51.298Z,28.84
2018-08-18T11:07:51.257Z,28.96
2018-08-18T11:08:51.229Z,29.05
2018-08-18T11:09:51.186Z,29.06
2018-08-18T11:10:51.146Z,29.10
2018-08-18T11:11:51.179Z,29.07
2018-08-18T11:13:51.036Z,29.05
2018-08-18T11:14:51.001Z,29.06
2018-08-18T11:15:50.965Z,29.12
2018-08-18T11:16:50.927Z,29.31
2018-08-18T11:17:50.895Z,29.22
2018-08-18T11:18:50.852Z,29.30
2018-08-18T11:19:50.818Z,29.28
2018-08-18T11:20:50.783Z,29.32
2018-08-18T11:21:50.821Z,29.32
2018-08-18T11:22:50.716Z,29.44
2018-08-18T11:23:50.693Z,29.49
2018-08-18T11:24:50.704Z,29.59
2018-08-18T11:25:50.702Z,29.61
2018-08-18T11:26:50.639Z,29.69
2018-08-18T11:27:50.638Z,29.80
2018-08-18T11:28:50.797Z,29.87
2018-08-18T11:29:50.454Z,29.86
2018-08-18T11:30:50.418Z,29.87
2018-08-18T11:31:50.383Z,29.89
2018-08-18T11:32:50.353Z,29.94
2018-08-18T11:33:50.310Z,29.96
2018-08-18T11:34:50.276Z,29.98
2018-08-18T11:35:50.237Z,30.06
2018-08-18T11:36:50.200Z,30.14
2018-08-18T11:37:50.164Z,30.13
2018-08-18T11:38:50.131Z,30.14
2018-08-18T11:39:50.096Z,30.27
2018-08-18T11:40:50.056Z,30.23
2018-08-18T11:41:50.019Z,30.21
2018-08-18T11:42:49.990Z,30.29
2018-08-18T11:43:49.953Z,30.27
2018-08-18T11:44:49.912Z,30.38
2018-08-18T11:45:49.877Z,30.38
2018-08-18T11:46:49.841Z,30.48
2018-08-18T11:47:49.805Z,30.49
2018-08-18T11:48:49.768Z,30.52
2018-08-18T11:49:49.741Z,30.55
2018-08-18T11:50:49.698Z,30.65
2018-08-18T11:51:49.662Z,30.65
2018-08-18T11:52:49.626Z,30.69
2018-08-18T11:53:49.606Z,30.76
2018-08-18T11:54:49.555Z,30.93
2018-08-18T11:55:49.519Z,31.13
2018-08-18T11:56:49.487Z,31.30
2018-08-18T11:57:49.447Z,31.45
2018-08-18T11:58:49.412Z,31.66
2018-08-18T11:59:49.376Z,31.85
2018-08-18T12:00:49.339Z,31.98
2018-08-18T12:01:49.357Z,32.26
2018-08-18T12:02:49.272Z,32.48
2018-08-18T12:03:49.238Z,32.66
2018-08-18T12:04:49.197Z,32.72
2018-08-18T12:05:49.162Z,32.81
2018-08-18T12:06:49.141Z,32.91
2018-08-18T12:07:49.091Z,33.03
2018-08-18T12:08:49.053Z,32.67
2018-08-18T12:09:49.023Z,32.76
2018-08-18T12:10:49.195Z,32.56
2018-08-18T12:11:48.948Z,32.48
2018-08-18T12:12:48.915Z,32.48
2018-08-18T12:13:48.876Z,32.48
2018-08-18T12:14:48.842Z,32.46
2018-08-18T12:15:48.807Z,32.39
2018-08-18T12:16:48.769Z,32.48
2018-08-18T12:17:48.735Z,32.37
2018-08-18T12:18:48.702Z,32.29
2018-08-18T12:19:48.668Z,32.27
2018-08-18T12:20:48.630Z,32.22
2018-08-18T12:21:48.599Z,32.11
2018-08-18T12:22:48.562Z,32.09
2018-08-18T12:23:48.522Z,32.23
2018-08-18T12:24:48.488Z,32.15
2018-08-18T12:25:48.461Z,32.15
2018-08-18T12:26:48.426Z,32.17
2018-08-18T12:27:48.383Z,32.11
2018-08-18T12:28:48.345Z,32.04
2018-08-18T12:29:48.443Z,32.09
2018-08-18T12:30:48.281Z,32.15
2018-08-18T12:31:48.245Z,32.27
2018-08-18T12:32:48.204Z,32.31
2018-08-18T12:33:48.168Z,32.34
2018-08-18T12:34:48.135Z,32.49
2018-08-18T12:35:48.097Z,32.56
2018-08-18T12:36:48.097Z,32.49
2018-08-18T12:37:48.037Z,32.44
2018-08-18T12:38:47.992Z,32.49
2018-08-18T12:39:47.956Z,32.35
2018-08-18T12:40:47.919Z,32.15
2018-08-18T12:41:47.884Z,32.04
2018-08-18T12:42:47.851Z,31.90
2018-08-18T12:43:47.814Z,31.81
2018-08-18T12:44:47.778Z,31.59
2018-08-18T12:45:47.743Z,31.54
2018-08-18T12:46:47.706Z,31.39
2018-08-18T12:47:47.673Z,31.36
2018-08-18T12:48:47.639Z,31.33
2018-08-18T12:49:47.674Z,31.33
2018-08-18T12:50:47.570Z,31.22
2018-08-18T12:51:47.529Z,31.15
2018-08-18T12:52:47.496Z,31.10
2018-08-18T12:53:47.461Z,31.14